Flight Track Log - Related Links

Times and Time Zones

All times are in EDT time to prevent confusion due to time zone crossing. See the JBU109 flight status page for this flight to view local times or setup timezone preferences in your user account.

Time Position Orientation Groundspeed Altitude Reporting Facility
EDT Latitude Longitude Course Direction KTS MPH feet Rate Location/Type
Thu 11:37:37 PM 40.6440 -73.7770 47° Northeast 2 2  Level FlightAware ADS-B
Thu 11:40:03 PM 40.6430 -73.7770 180° South 15 17 55 Level FlightAware ADS-B
Thu 11:42:00 PM 40.5207 -73.5833 180° South  Level FlightAware Approximate
Thu 11:43:00 PM 40.4670 -73.4728 128° Southeast  Level FlightAware Approximate
Thu 11:44:00 PM 40.3988 -73.3590 128° Southeast  Level FlightAware Approximate
Thu 11:44:47 PM 40.6410 -73.7750 128° Southeast 34 39  Level FlightAware ADS-B
Thu 11:45:28 PM 40.6410 -73.7740 90° East 25 29 97 Level FlightAware ADS-B
Thu 11:45:55 PM 40.6390 -73.7750 201° Southwest 34 39 105 Level FlightAware ADS-B
Thu 11:46:15 PM 40.6380 -73.7760 217° Southwest 19 22 111 Level FlightAware ADS-B
Thu 11:46:31 PM 40.6370 -73.7770 217° Southwest 18 21 116 Level FlightAware ADS-B
Thu 11:47:00 PM 40.6350 -73.7790 217° Southwest 18 21 120 Level FlightAware ADS-B
Thu 11:47:29 PM 40.6320 -73.7800 194° South 34 39 128 Level FlightAware ADS-B
Thu 11:47:55 PM 40.6310 -73.7810 217° Southwest 30 35 138 Level FlightAware ADS-B
Thu 11:48:24 PM 40.6300 -73.7820 217° Southwest 28 32 148 Level FlightAware ADS-B
Thu 11:48:36 PM 40.6290 -73.7820 180° South 30 35 160 Level FlightAware ADS-B
Thu 11:49:20 PM 40.6270 -73.7840 217° Southwest 30 35 166 Level FlightAware ADS-B
Thu 11:49:48 PM 40.6260 -73.7850 217° Southwest 31 36 192 Level FlightAware ADS-B
Thu 11:50:17 PM 40.6240 -73.7860 201° Southwest 29 33 213 Level FlightAware ADS-B
Thu 11:50:45 PM 40.6230 -73.7870 217° Southwest 22 25 241 Level FlightAware ADS-B
Thu 11:51:16 PM 40.6230 -73.7860 90° East 11 13 276 Level FlightAware ADS-B
Thu 11:51:32 PM 40.6220 -73.7860 180° South 22 25 327 Level FlightAware ADS-B
Thu 11:52:00 PM 40.6220 -73.7850 90° East 362 Level FlightAware ADS-B
Thu 11:53:09 PM 40.6230 -73.7850 360° North 25 29 446 Level FlightAware ADS-B
Thu 11:53:33 PM 40.6310 -73.7780 34° Northeast 130 150 1,038 Level FlightAware ADS-B
Thu 11:54:01 PM 40.6490 -73.7640 31° Northeast 157 181 900 2,154 Climbing FlightAware ADS-B
Thu 11:54:12 PM 40.6530 -73.7580 49° Northeast 155 178 1,400 2,000 Climbing FlightAware ADS-B
Thu 11:54:28 PM 40.6560 -73.7410 77° East 177 204 1,800 1,227 Climbing FlightAware ADS-B
Thu 11:54:56 PM 40.6560 -73.7080 90° East 212 244 2,300 980 Climbing FlightAware ADS-B
Thu 11:55:17 PM 40.6550 -73.6780 93° East 244 281 2,600 1,273 Climbing FlightAware ADS-B
Thu 11:55:29 PM 40.6500 -73.6600 110° East 264 304 3,000 2,500 Climbing FlightAware ADS-B
Thu 11:55:41 PM 40.6400 -73.6460 133° Southeast 269 310 3,600 3,000 Climbing FlightAware ADS-B
Thu 11:55:59 PM 40.6190 -73.6330 155° Southeast 275 316 4,500 3,067 Climbing FlightAware ADS-B
Thu 11:56:26 PM 40.5880 -73.6170 159° South 279 321 5,900 3,064 Climbing FlightAware ADS-B
Thu 11:56:46 PM 40.5643 -73.6027 155° Southeast 282 325 6,900 3,000 Climbing FlightAware ADS-B
Thu 11:57:02 PM 40.5449 -73.5912 156° South 286 329 7,700 2,903 Climbing FlightAware ADS-B
Thu 11:57:17 PM 40.5270 -73.5803 155° Southeast 285 328 8,400 3,214 Climbing FlightAware ADS-B
Thu 11:57:30 PM 40.5111 -73.5693 152° Southeast 284 327 9,200 3,333 Climbing FlightAware ADS-B
Thu 11:57:35 PM 40.5054 -73.5645 147° Southeast 287 330 9,400 2,000 Climbing FlightAware ADS-B
Thu 11:57:39 PM 40.5019 -73.5607 140° Southeast 290 334 9,500 1,333 Climbing FlightAware ADS-B
Thu 11:57:44 PM 40.4973 -73.5550 137° Southeast 293 337 9,600 1,333 Climbing FlightAware ADS-B
Thu 11:57:48 PM 40.4931 -73.5490 133° Southeast 300 345 9,700 1,800 Climbing FlightAware ADS-B
Thu 11:57:54 PM 40.4880 -73.5408 129° Southeast 306 352 9,900 1,692 Climbing FlightAware ADS-B
Thu 11:58:27 PM 40.4589 -73.4892 127° Southeast 329 379 10,800 1,538 Climbing FlightAware ADS-B
Thu 11:58:33 PM 40.4527 -73.4804 133° Southeast 335 386 10,900 1,000 Climbing FlightAware ADS-B
Thu 11:58:39 PM 40.4457 -73.4729 141° Southeast 341 392 11,000 1,000 Climbing FlightAware ADS-B
Thu 11:59:09 PM 40.4027 -73.4413 151° Southeast 365 420 11,500 1,600 Climbing FlightAware ADS-B
Thu 11:59:39 PM 40.3572 -73.4100 152° Southeast 371 427 12,600 2,066 Climbing FlightAware ADS-B
Fri 12:00:10 AM 40.3110 -73.3774 152° Southeast 378 435 13,600 1,967 Climbing FlightAware ADS-B
Fri 12:00:40 AM 40.2642 -73.3442 152° Southeast 382 440 14,600 1,700 Climbing FlightAware ADS-B
Fri 12:01:10 AM 40.2166 -73.3102 151° Southeast 391 450 15,300 1,700 Climbing FlightAware ADS-B
Fri 12:01:40 AM 40.1683 -73.2757 151° Southeast 393 452 16,300 1,839 Climbing FlightAware ADS-B
Fri 12:02:12 AM 40.1179 -73.2399 151° Southeast 397 457 17,200 1,548 Climbing FlightAware ADS-B
Fri 12:02:42 AM 40.0678 -73.2044 152° Southeast 409 471 17,900 1,457 Climbing FlightAware ADS-B
Fri 12:03:22 AM 40.0003 -73.1567 152° Southeast 417 480 18,900 1,944 Climbing FlightAware ADS-B
Fri 12:03:53 AM 39.9493 -73.1206 152° Southeast 404 465 20,200 2,323 Climbing FlightAware ADS-B
Fri 12:04:24 AM 39.8991 -73.0852 152° Southeast 401 461 21,300 2,262 Climbing FlightAware ADS-B
Fri 12:04:54 AM 39.8500 -73.0507 152° Southeast 389 448 22,500 1,700 Climbing FlightAware ADS-B
Fri 12:05:24 AM 39.8030 -73.0176 152° Southeast 384 442 23,000 882 Climbing FlightAware ADS-B
Fri 12:06:02 AM 39.7432 -72.9759 152° Southeast 387 445 23,500 917 Climbing FlightAware ADS-B
Fri 12:06:36 AM 39.6898 -72.9385 152° Southeast 396 456 24,100 1,200 Climbing FlightAware ADS-B
Fri 12:07:32 AM 39.6010 -72.8760 152° Southeast 389 448 25,300 1,390 Climbing FlightAware ADS-B
Fri 12:07:58 AM 39.5574 -72.8461 152° Southeast 398 458 26,000 1,183 Climbing FlightAware ADS-B
Fri 12:08:43 AM 39.4839 -72.7951 152° Southeast 403 464 26,700 1,029 Climbing FlightAware ADS-B
Fri 12:09:43 AM 39.3845 -72.7263 152° Southeast 408 470 27,800 1,032 Climbing FlightAware ADS-B
Fri 12:10:16 AM 39.3303 -72.6888 152° Southeast 411 473 28,300 952 Climbing FlightAware ADS-B
Fri 12:10:46 AM 39.2793 -72.6534 152° Southeast 412 474 28,800 1,000 Climbing FlightAware ADS-B
Fri 12:11:16 AM 39.2284 -72.6183 152° Southeast 412 474 29,300 885 Climbing FlightAware ADS-B
Fri 12:11:47 AM 39.1764 -72.5825 152° Southeast 419 482 29,700 857 Climbing FlightAware ADS-B
Fri 12:12:19 AM 39.1223 -72.5453 152° Southeast 422 486 30,200 857 Climbing FlightAware ADS-B
Fri 12:12:50 AM 39.0689 -72.5087 152° Southeast 425 489 30,600 787 Climbing FlightAware ADS-B
Fri 12:13:20 AM 39.0163 -72.4727 152° Southeast 426 490 31,000 1,200 Climbing FlightAware ADS-B
Fri 12:13:50 AM 38.9637 -72.4369 152° Southeast 420 483 31,800 1,180 Climbing FlightAware ADS-B
Fri 12:14:21 AM 38.9119 -72.4015 152° Southeast 420 483 32,200 885 Climbing FlightAware ADS-B
Fri 12:14:51 AM 38.8604 -72.3664 152° Southeast 418 481 32,700 857 Climbing FlightAware ADS-B
Fri 12:15:24 AM 38.8036 -72.3278 152° Southeast 418 481 33,100 686 Climbing FlightAware ADS-B
Fri 12:16:01 AM 38.7411 -72.2854 152° Southeast 421 484 33,500 806 Climbing FlightAware ADS-B
Fri 12:16:31 AM 38.6890 -72.2501 152° Southeast 417 480 34,000 689 Climbing FlightAware ADS-B
Fri 12:17:02 AM 38.6400 -72.2170 152° Southeast 420 483 34,200 462 Climbing FlightAware ADS-B
Fri 12:17:10 AM 38.6225 -72.2051 152° Southeast 420 483 34,300 789 Climbing FlightAware ADS-B
Fri 12:17:40 AM 38.5713 -72.1706 152° Southeast 416 479 34,700 700 Climbing FlightAware ADS-B
Fri 12:18:10 AM 38.5200 -72.1361 152° Southeast 419 482 35,000 300 Climbing FlightAware ADS-B
Fri 12:18:40 AM 38.4680 -72.1012 152° Southeast 425 489 35,000  Level FlightAware ADS-B
Fri 12:19:10 AM 38.4148 -72.0654 152° Southeast 434 499 35,000  Level FlightAware ADS-B
Fri 12:19:40 AM 38.3605 -72.0289 152° Southeast 442 509 35,000  Level FlightAware ADS-B
Fri 12:20:10 AM 38.3059 -71.9924 152° Southeast 450 518 35,000  Level FlightAware ADS-B
Fri 12:20:41 AM 38.2498 -71.9550 152° Southeast 454 522 35,000  Level FlightAware ADS-B
Fri 12:21:19 AM 38.1780 -71.9070 152° Southeast 453 521 35,000  Level FlightAware ADS-B
Fri 12:21:50 AM 38.1206 -71.8689 152° Southeast 452 520 35,000  Level FlightAware ADS-B
Fri 12:22:20 AM 38.0644 -71.8315 152° Southeast 449 517 35,000  Level FlightAware ADS-B
Fri 12:22:54 AM 38.0110 -71.7960 152° Southeast 439 505 35,000  Level FlightAware ADS-B
Fri 12:23:29 AM 37.9391 -71.7487 153° Southeast 448 516 35,000  Level FlightAware ADS-B
Fri 12:24:40 AM 37.8240 -71.6810 155° Southeast 439 505 35,000  Level FlightAware ADS-B
Fri 12:25:00 AM 37.7664 -71.6567 162° South 450 518 35,000  Level FlightAware ADS-B
Fri 12:27:00 AM 37.5589 -71.5019 149° Southeast  Level FlightAware Approximate
Fri 12:28:00 AM 37.4542 -71.4256 154° Southeast  Level FlightAware Approximate
Fri 12:29:00 AM 37.3461 -71.3585 154° Southeast  Level FlightAware Approximate
Fri 12:30:00 AM 37.2380 -71.2915 154° Southeast  Level FlightAware Approximate
Fri 12:30:39 AM 37.1250 -71.2850 155° Southeast 451 519 35,000  Level New York Center
Fri 12:31:00 AM 37.1299 -71.2248 154° Southeast  Level FlightAware Approximate
Fri 12:32:00 AM 37.0194 -71.1691 155° Southeast  Level FlightAware Approximate
Fri 12:32:00 AM 36.9629 -71.2681 155° Southeast  Level Estimated
Fri 12:33:00 AM 36.9104 -71.1048 155° Southeast  Level FlightAware Approximate
Fri 12:34:00 AM 36.8014 -71.0408 155° Southeast  Level FlightAware Approximate
Fri 12:35:00 AM 36.6923 -70.9769 155° Southeast  Level FlightAware Approximate
Fri 12:36:00 AM 36.5832 -70.9132 155° Southeast  Level FlightAware Approximate
Fri 12:39:00 AM 36.2259 -70.7573 151° Southeast  Level FlightAware Approximate
Fri 12:40:00 AM 36.1204 -70.6851 151° Southeast  Level FlightAware Approximate
Fri 12:41:00 AM 36.0149 -70.6131 151° Southeast  Level FlightAware Approximate
Fri 12:42:00 AM 35.9094 -70.5413 151° Southeast  Level FlightAware Approximate
Fri 12:43:00 AM 35.8038 -70.4697 151° Southeast  Level FlightAware Approximate
Fri 12:44:00 AM 35.6834 -70.4631 168° South  Level Estimated
Fri 12:45:00 AM 35.5661 -70.4296 167° South  Level FlightAware Approximate
Fri 12:46:00 AM 35.4487 -70.3961 167° South  Level FlightAware Approximate
Fri 12:46:20 AM 35.7667 -70.4500 168° South 451 519 35,000  Level New York Oceanic (ODAPS)
Fri 12:47:00 AM 35.3313 -70.3627 167° South  Level FlightAware Approximate
Fri 12:48:00 AM 35.2139 -70.3294 167° South  Level FlightAware Approximate
Fri 12:49:00 AM 35.0965 -70.2962 167° South  Level FlightAware Approximate
Fri 12:50:00 AM 34.9791 -70.2631 167° South  Level FlightAware Approximate
Fri 12:51:00 AM 34.8617 -70.2301 167° South  Level FlightAware Approximate
Fri 12:52:00 AM 34.5200 -70.1247 168° South 451 519 35,000  Level FlightAware Transoceanic
Fri 12:53:00 AM 34.3952 -70.0928 168° South 451 519 35,000  Level FlightAware Transoceanic
Fri 12:54:00 AM 34.2705 -70.0609 168° South 451 519 35,000  Level FlightAware Transoceanic
Fri 12:55:00 AM 34.1458 -70.0291 168° South 451 519 35,000  Level FlightAware Transoceanic
Fri 12:56:00 AM 34.0210 -69.9974 168° South 451 519 35,000  Level FlightAware Transoceanic
Fri 12:57:00 AM 33.8963 -69.9658 168° South 451 519 35,000  Level FlightAware Transoceanic
Fri 12:58:00 AM 33.7715 -69.9342 168° South 451 519 35,000  Level FlightAware Transoceanic
Fri 12:59:00 AM 33.6468 -69.9028 168° South 451 519 35,000  Level FlightAware Transoceanic
Fri 01:00:00 AM 33.5220 -69.8715 168° South 451 519 35,000  Level FlightAware Transoceanic
Fri 01:01:00 AM 33.3972 -69.8402 168° South 451 519 35,000  Level FlightAware Transoceanic
Fri 01:02:00 AM 33.2724 -69.8091 168° South 451 519 35,000  Level FlightAware Transoceanic
Fri 01:03:00 AM 33.1476 -69.7780 168° South 451 519 35,000  Level FlightAware Transoceanic
Fri 01:04:00 AM 33.0228 -69.7471 168° South 451 519 35,000  Level FlightAware Transoceanic
Fri 01:05:00 AM 32.8980 -69.7162 168° South 451 519 35,000  Level FlightAware Transoceanic
Fri 01:05:45 AM 33.3000 -69.8167 168° South 440 506 35,000  Level New York Oceanic (ODAPS)
Fri 01:06:00 AM 32.7732 -69.6854 168° South 451 519 35,000  Level FlightAware Transoceanic
Fri 01:07:00 AM 32.6483 -69.6546 168° South 451 519 35,000  Level FlightAware Transoceanic
Fri 01:08:00 AM 32.5235 -69.6240 168° South 451 519 35,000  Level FlightAware Transoceanic
Fri 01:09:00 AM 32.3987 -69.5935 168° South 451 519 35,000  Level FlightAware Transoceanic
Fri 01:10:00 AM 32.2738 -69.5630 168° South 451 519 35,000  Level FlightAware Transoceanic
Fri 01:11:00 AM 32.1490 -69.5326 168° South 451 519 35,000  Level FlightAware Transoceanic
Fri 01:12:00 AM 31.9803 -69.4921 168° South 440 506 35,000  Level FlightAware Transoceanic
Fri 01:13:00 AM 31.8603 -69.4630 168° South 440 506 35,000  Level FlightAware Transoceanic
Fri 01:14:00 AM 31.7403 -69.4340 168° South 440 506 35,000  Level FlightAware Transoceanic
Fri 01:15:00 AM 31.6203 -69.4051 168° South 440 506 35,000  Level FlightAware Transoceanic
Fri 01:16:00 AM 31.5002 -69.3763 168° South 440 506 35,000  Level FlightAware Transoceanic
Fri 01:17:00 AM 31.3802 -69.3476 168° South 440 506 35,000  Level FlightAware Transoceanic
Fri 01:18:00 AM 31.2602 -69.3189 168° South 440 506 35,000  Level FlightAware Transoceanic
Fri 01:19:00 AM 31.1401 -69.2903 168° South 440 506 35,000  Level FlightAware Transoceanic
Fri 01:20:00 AM 31.0201 -69.2618 169° South 440 506 35,000  Level FlightAware Transoceanic
Fri 01:21:00 AM 30.9000 -69.2333 168° South 440 506 35,000  Level FlightAware Transoceanic
Fri 01:22:00 AM 30.7701 -69.2024 168° South 440 506 35,000  Level FlightAware Transoceanic
Fri 01:22:42 AM 30.9000 -69.2333 168° South 451 519 35,000  Level New York Oceanic (ODAPS)
Fri 01:23:00 AM 30.6402 -69.1716 168° South 440 506 35,000  Level FlightAware Transoceanic
Fri 01:24:00 AM 30.5103 -69.1408 168° South 440 506 35,000  Level FlightAware Transoceanic
Fri 01:25:00 AM 30.3803 -69.1101 169° South 440 506 35,000  Level FlightAware Transoceanic
Fri 01:26:00 AM 30.2504 -69.0795 169° South 440 506 35,000  Level FlightAware Transoceanic
Fri 01:27:00 AM 30.1205 -69.0490 169° South 440 506 35,000  Level FlightAware Transoceanic
Fri 01:28:00 AM 30.0080 -69.0227 169° South 451 519 35,000  Level FlightAware Transoceanic
Fri 01:29:00 AM 29.8806 -68.9929 169° South 451 519 35,000  Level FlightAware Transoceanic
Fri 01:30:00 AM 29.7531 -68.9632 169° South 451 519 35,000  Level FlightAware Transoceanic
Fri 01:31:00 AM 29.6256 -68.9335 169° South 451 519 35,000  Level FlightAware Transoceanic
Fri 01:32:00 AM 29.4982 -68.9040 169° South 451 519 35,000  Level FlightAware Transoceanic
Fri 01:33:00 AM 29.3707 -68.8745 169° South 451 519 35,000  Level FlightAware Transoceanic
Fri 01:34:00 AM 29.2432 -68.8451 169° South 451 519 35,000  Level FlightAware Transoceanic
Fri 01:35:00 AM 29.1157 -68.8158 169° South 451 519 35,000  Level FlightAware Transoceanic
Fri 01:36:00 AM 28.9882 -68.7865 169° South 451 519 35,000  Level FlightAware Transoceanic
Fri 01:37:00 AM 28.8607 -68.7573 169° South 451 519 35,000  Level FlightAware Transoceanic
Fri 01:38:00 AM 28.7332 -68.7282 169° South 451 519 35,000  Level FlightAware Transoceanic
Fri 01:39:00 AM 28.6057 -68.6991 169° South 451 519 35,000  Level FlightAware Transoceanic
Fri 01:40:00 AM 28.4781 -68.6701 169° South 451 519 35,000  Level FlightAware Transoceanic
Fri 01:41:00 AM 28.3506 -68.6412 169° South 451 519 35,000  Level FlightAware Transoceanic
Fri 01:42:00 AM 28.2231 -68.6124 169° South 451 519 35,000  Level FlightAware Transoceanic
Fri 01:43:00 AM 28.0955 -68.5836 169° South 451 519 35,000  Level FlightAware Transoceanic
Fri 01:44:00 AM 27.9680 -68.5549 169° South 451 519 35,000  Level FlightAware Transoceanic
Fri 01:45:00 AM 27.8404 -68.5263 169° South 451 519 35,000  Level FlightAware Transoceanic
Fri 01:46:00 AM 27.7129 -68.4977 169° South 451 519 35,000  Level FlightAware Transoceanic
Fri 01:47:00 AM 27.5853 -68.4692 169° South 451 519 35,000  Level FlightAware Transoceanic
Fri 01:48:00 AM 27.4577 -68.4408 169° South 451 519 35,000  Level FlightAware Transoceanic
Fri 01:49:00 AM 27.3302 -68.4124 169° South 451 519 35,000  Level FlightAware Transoceanic
Fri 01:50:00 AM 27.2026 -68.3841 169° South 451 519 35,000  Level FlightAware Transoceanic
Fri 01:51:00 AM 27.0750 -68.3559 169° South 451 519 35,000  Level FlightAware Transoceanic
Fri 01:51:44 AM 27.9333 -68.5333 169° South 474 545 35,000  Level New York Oceanic (ODAPS)
Fri 01:52:00 AM 26.9474 -68.3277 169° South 451 519 35,000  Level FlightAware Transoceanic
Fri 01:53:00 AM 26.8198 -68.2996 169° South 451 519 35,000  Level FlightAware Transoceanic
Fri 01:54:00 AM 26.6922 -68.2715 169° South 451 519 35,000  Level FlightAware Transoceanic
Fri 01:55:00 AM 26.5646 -68.2435 169° South 451 519 35,000  Level FlightAware Transoceanic
Fri 01:56:00 AM 26.4370 -68.2156 169° South 451 519 35,000  Level FlightAware Transoceanic
Fri 01:57:00 AM 26.3093 -68.1878 169° South 451 519 35,000  Level FlightAware Transoceanic
Fri 01:58:00 AM 26.2315 -68.1635 169° South 474 545 35,000  Level FlightAware Transoceanic
Fri 01:59:00 AM 26.1005 -68.1355 169° South 474 545 35,000  Level FlightAware Transoceanic
Fri 02:00:00 AM 25.9696 -68.1076 169° South 474 545 35,000  Level FlightAware Transoceanic
Fri 02:01:00 AM 25.8386 -68.0797 169° South 474 545 35,000  Level FlightAware Transoceanic
Fri 02:02:00 AM 25.7076 -68.0519 169° South 474 545 35,000  Level FlightAware Transoceanic
Fri 02:03:00 AM 25.5767 -68.0242 169° South 474 545 35,000  Level FlightAware Transoceanic
Fri 02:04:00 AM 25.4457 -67.9965 169° South 474 545 35,000  Level FlightAware Transoceanic
Fri 02:04:56 AM 25.4667 -68.0000 169° South 473 544 35,000  Level New York Oceanic (ODAPS)
Fri 02:05:00 AM 25.3147 -67.9689 169° South 474 545 35,000  Level FlightAware Transoceanic
Fri 02:06:00 AM 25.1837 -67.9413 169° South 474 545 35,000  Level FlightAware Transoceanic
Fri 02:07:00 AM 25.0527 -67.9138 169° South 474 545 35,000  Level FlightAware Transoceanic
Fri 02:08:00 AM 24.9217 -67.8864 169° South 474 545 35,000  Level FlightAware Transoceanic
Fri 02:09:00 AM 24.7907 -67.8590 169° South 474 545 35,000  Level FlightAware Transoceanic
Fri 02:10:00 AM 24.6597 -67.8316 169° South 474 545 35,000  Level FlightAware Transoceanic
Fri 02:11:00 AM 24.5334 -67.8051 169° South 473 544 35,000  Level FlightAware Transoceanic
Fri 02:12:00 AM 24.4000 -67.7775 169° South 473 544 35,000  Level FlightAware Transoceanic
Fri 02:13:00 AM 24.2667 -67.7500 169° South 473 544 35,000  Level FlightAware Transoceanic
Fri 02:14:00 AM 24.1396 -67.7225 169° South 473 544 35,000  Level FlightAware Transoceanic
Fri 02:15:00 AM 24.0126 -67.6951 169° South 473 544 35,000  Level FlightAware Transoceanic
Fri 02:16:00 AM 23.8855 -67.6677 169° South 473 544 35,000  Level FlightAware Transoceanic
Fri 02:17:00 AM 23.7584 -67.6404 169° South 473 544 35,000  Level FlightAware Transoceanic
Fri 02:18:00 AM 23.6314 -67.6132 169° South 473 544 35,000  Level FlightAware Transoceanic
Fri 02:19:00 AM 23.5043 -67.5859 169° South 473 544 35,000  Level FlightAware Transoceanic
Fri 02:20:00 AM 23.3772 -67.5588 169° South 473 544 35,000  Level FlightAware Transoceanic
Fri 02:21:00 AM 23.2502 -67.5317 169° South 473 544 35,000  Level FlightAware Transoceanic
Fri 02:22:00 AM 23.1231 -67.5046 169° South 473 544 35,000  Level FlightAware Transoceanic
Fri 02:23:00 AM 22.9960 -67.4776 169° South 473 544 35,000  Level FlightAware Transoceanic
Fri 02:24:00 AM 22.8689 -67.4507 169° South 473 544 35,000  Level FlightAware Transoceanic
Fri 02:25:00 AM 22.7418 -67.4238 169° South 473 544 35,000  Level FlightAware Transoceanic
Fri 02:26:00 AM 22.6147 -67.3969 169° South 473 544 35,000  Level FlightAware Transoceanic
Fri 02:27:00 AM 22.4876 -67.3701 169° South 473 544 35,000  Level FlightAware Transoceanic
Fri 02:28:00 AM 22.3605 -67.3434 169° South 473 544 35,000  Level FlightAware Transoceanic
Fri 02:28:34 AM 22.3090 -67.4220 169° South 460 529 35,000  Level FlightAware ADS-B
Fri 02:29:14 AM 22.2333 -67.3167 232° Southwest 498 573 35,000  Level New York Oceanic (ODAPS)
Fri 02:29:29 AM 22.2030 -67.4690 202° Southwest 454 522 35,000  Level FlightAware ADS-B
Fri 02:30:24 AM 22.1100 -67.5330 213° Southwest 451 519 35,000  Level FlightAware ADS-B
Fri 02:31:15 AM 22.0370 -67.6190 228° Southwest 446 513 35,000  Level FlightAware ADS-B
Fri 02:31:54 AM 21.9840 -67.6910 232° Southwest 446 513 35,000  Level FlightAware ADS-B
Fri 02:32:51 AM 21.9040 -67.7870 228° Southwest 450 518 35,000  Level FlightAware ADS-B
Fri 02:33:46 AM 21.8270 -67.8630 223° Southwest 450 518 35,000  Level FlightAware ADS-B
Fri 02:34:23 AM 21.7780 -67.9100 232° Southwest 450 518 35,000  Level FlightAware ADS-B
Fri 02:35:11 AM 21.7150 -67.9710 222° Southwest 450 518 35,000  Level FlightAware ADS-B
Fri 02:35:47 AM 21.6670 -68.0170 222° Southwest 450 518 35,000  Level FlightAware ADS-B
Fri 02:36:29 AM 21.5740 -68.1160 225° Southwest 451 519 35,000  Level FlightAware ADS-B
Fri 02:37:28 AM 21.4920 -68.1960 222° Southwest 452 520 35,000  Level FlightAware ADS-B
Fri 02:38:04 AM 21.4440 -68.2420 222° Southwest 452 520 35,000  Level FlightAware ADS-B
Fri 02:38:52 AM 21.3810 -68.3030 222° Southwest 452 520 35,000  Level FlightAware ADS-B
Fri 02:39:28 AM 21.3330 -68.3490 222° Southwest 452 520 35,000  Level FlightAware ADS-B
Fri 02:40:04 AM 21.2860 -68.3950 222° Southwest 452 520 35,000  Level FlightAware ADS-B
Fri 02:40:52 AM 21.2220 -68.4560 222° Southwest 452 520 35,000  Level FlightAware ADS-B
Fri 02:41:36 AM 21.1100 -68.5730 224° Southwest 450 518 35,000  Level FlightAware ADS-B
Fri 02:42:12 AM 21.0620 -68.6190 222° Southwest 450 518 35,000  Level FlightAware ADS-B
Fri 02:43:24 AM 20.9440 -68.7360 223° Southwest 450 518 35,000  Level FlightAware ADS-B
Fri 02:44:13 AM 20.8610 -68.8180 223° Southwest 450 518 35,000  Level FlightAware ADS-B
Fri 02:44:55 AM 20.7970 -68.8810 223° Southwest 451 519 35,000  Level FlightAware ADS-B
Fri 02:45:37 AM 20.7380 -68.9380 222° Southwest 452 520 35,000  Level FlightAware ADS-B
Fri 02:46:26 AM 20.6730 -69.0000 222° Southwest 452 520 35,000  Level FlightAware ADS-B
Fri 02:47:05 AM 20.5950 -69.0780 223° Southwest 453 521 35,000  Level FlightAware ADS-B
Fri 02:47:50 AM 20.5360 -69.1350 222° Southwest 453 521 35,000  Level FlightAware ADS-B
Fri 02:48:26 AM 20.4880 -69.1810 222° Southwest 453 521 35,000  Level FlightAware ADS-B
Fri 02:49:14 AM 20.4240 -69.2420 222° Southwest 453 521 35,000  Level FlightAware ADS-B
Fri 02:49:50 AM 20.3770 -69.2880 223° Southwest 453 521 35,000  Level FlightAware ADS-B
Fri 02:50:38 AM 20.3130 -69.3490 222° Southwest 453 521 35,000 -4,557 Level FlightAware ADS-B
Fri 02:51:09 AM 20.1250 -69.2820 161° South 448 516 29,000 -3,612 Descending FlightAware ADS-B
Fri 02:52:21 AM 19.9840 -69.3260 196° South 443 510 28,800 -1,376 Descending FlightAware ADS-B
Fri 02:52:58 AM 19.9120 -69.3490 197° South 436 502 26,500 -3,949 Descending FlightAware ADS-B
Fri 02:53:40 AM 19.8270 -69.3750 196° South 431 496 23,600 -3,882 Descending FlightAware ADS-B
Fri 02:54:40 AM 19.7090 -69.4120 196° South 446 513 19,900 -2,198 Descending FlightAware ADS-B
Fri 02:55:51 AM 19.5850 -69.4500 196° South 431 496 18,800 -1,654 Descending FlightAware ADS-B
Fri 02:56:47 AM 19.4800 -69.4830 197° South 401 461 16,400 -1,565 Descending FlightAware ADS-B
Fri 02:57:23 AM 19.4250 -69.5000 196° South 401 461 16,400  Level FlightAware ADS-B
Fri 02:58:23 AM 19.3340 -69.5270 196° South 401 461 16,400 -2,738 Level FlightAware ADS-B
Fri 02:59:06 AM 19.2510 -69.5550 198° South 347 399 11,700 -4,069 Descending FlightAware ADS-B
Fri 02:59:50 AM 19.1850 -69.5760 197° South 338 389 10,500 -867 Descending FlightAware ADS-B
Fri 03:00:36 AM 19.1240 -69.5940 196° South 338 389 10,400 -73 Descending FlightAware ADS-B
Fri 03:01:12 AM 19.0780 -69.6080 196° South 338 389 10,400  Level FlightAware ADS-B
Fri 03:03:00 AM 18.8663 -69.6732 196° South  Level FlightAware Approximate
Fri 03:04:00 AM 18.7456 -69.6736 174° South  Level FlightAware Approximate
Fri 03:05:00 AM 18.6234 -69.6667 180° South  Level FlightAware Approximate
Fri 03:06:00 AM 18.5009 -69.6667 180° South  Level FlightAware Approximate
Fri 03:07:00 AM 18.4297 -69.6689 169° South  Level Estimated
Fri 03:08:00 AM 18.4297 -69.6689 169° South  Level Estimated
Fri 03:09:00 AM 18.4297 -69.6689 169° South  Level Estimated
Fri 03:10:00 AM 18.4297 -69.6689 169° South  Level Estimated
Fri 03:11:00 AM 18.4297 -69.6689 169° South  Level Estimated
Fri 03:12:00 AM 18.4297 -69.6689 169° South  Level Estimated
Fri 03:13:00 AM 18.4297 -69.6689 169° South  Level Estimated
Fri 03:14:00 AM 18.4297 -69.6689 169° South  Level Estimated
Fri 03:15:00 AM 18.4297 -69.6689 169° South  Level Estimated
Fri 03:16:00 AM 18.4297 -69.6689 169° South  Level Estimated
Fri 03:17:00 AM 18.4297 -69.6689 169° South  Level Estimated
Fri 03:18:00 AM 18.4297 -69.6689 169° South  Level Estimated
Fri 03:19:00 AM 18.4297 -69.6689 169° South  Level Estimated
Fri 03:20:00 AM 18.4297 -69.6689 169° South  Level Estimated
Fri 03:21:00 AM 18.4297 -69.6689 169° South  Level Estimated
Fri 03:22:00 AM 18.4297 -69.6689 169° South  Level Estimated
Fri 03:23:00 AM 18.4297 -69.6689 169° South  Level Estimated
Fri 03:24:00 AM 18.4297 -69.6689 169° South  Level Estimated
Fri 03:25:00 AM 18.4297 -69.6689 169° South  Level Estimated
Fri 03:26:00 AM 18.4297 -69.6689 169° South  Level Estimated
Fri 03:27:00 AM 18.4297 -69.6689 169° South  Level Estimated

Login

Don't have an account? Register now (free) for customized features, flight alerts, and more!